sensor_id;sensor_type;location;lat;lon;timestamp;pressure;altitude;pressure_sealevel;temperature;humidity
29359;BME280;16347;53.232;6.556;2023-08-07T00:00:44;100888.47;;;20.23;60.99
29359;BME280;16347;53.232;6.556;2023-08-07T00:03:12;100885.28;;;20.26;61.33
29359;BME280;16347;53.232;6.556;2023-08-07T00:05:45;100874.22;;;20.26;60.75
29359;BME280;16347;53.232;6.556;2023-08-07T00:08:13;100883.44;;;20.14;60.84
29359;BME280;16347;53.232;6.556;2023-08-07T00:10:43;100871.13;;;20.10;60.69
29359;BME280;16347;53.232;6.556;2023-08-07T00:13:11;100872.59;;;20.12;61.04
29359;BME280;16347;53.232;6.556;2023-08-07T00:15:39;100881.56;;;20.08;61.52
29359;BME280;16347;53.232;6.556;2023-08-07T00:18:07;100876.44;;;20.11;61.55
29359;BME280;16347;53.232;6.556;2023-08-07T00:20:35;100870.97;;;19.98;61.43
29359;BME280;16347;53.232;6.556;2023-08-07T00:23:03;100874.41;;;19.93;60.83
29359;BME280;16347;53.232;6.556;2023-08-07T00:25:31;100882.03;;;19.91;61.29
29359;BME280;16347;53.232;6.556;2023-08-07T00:28:00;100873.16;;;19.89;61.14
29359;BME280;16347;53.232;6.556;2023-08-07T00:30:28;100875.72;;;19.91;61.26
29359;BME280;16347;53.232;6.556;2023-08-07T00:32:56;100874.66;;;19.85;60.76
29359;BME280;16347;53.232;6.556;2023-08-07T00:35:24;100874.88;;;19.84;60.35
29359;BME280;16347;53.232;6.556;2023-08-07T00:37:52;100874.03;;;19.83;60.45
29359;BME280;16347;53.232;6.556;2023-08-07T00:40:20;100874.69;;;19.79;61.05
29359;BME280;16347;53.232;6.556;2023-08-07T00:42:48;100884.72;;;19.60;60.61
29359;BME280;16347;53.232;6.556;2023-08-07T00:45:17;100887.41;;;19.80;60.95
29359;BME280;16347;53.232;6.556;2023-08-07T00:47:45;100886.13;;;19.82;60.12
29359;BME280;16347;53.232;6.556;2023-08-07T00:50:14;100884.41;;;19.81;60.65
29359;BME280;16347;53.232;6.556;2023-08-07T00:52:42;100881.25;;;19.78;60.50
29359;BME280;16347;53.232;6.556;2023-08-07T00:55:10;100887.19;;;19.81;60.73
29359;BME280;16347;53.232;6.556;2023-08-07T00:57:39;100888.25;;;19.80;60.01
29359;BME280;16347;53.232;6.556;2023-08-07T01:00:07;100895.88;;;19.85;59.96
29359;BME280;16347;53.232;6.556;2023-08-07T01:02:37;100886.34;;;19.87;59.73
29359;BME280;16347;53.232;6.556;2023-08-07T01:05:05;100883.16;;;19.84;60.45
29359;BME280;16347;53.232;6.556;2023-08-07T01:07:33;100886.94;;;19.89;60.27
29359;BME280;16347;53.232;6.556;2023-08-07T01:10:01;100890.59;;;19.83;59.91
29359;BME280;16347;53.232;6.556;2023-08-07T01:12:33;100890.63;;;19.70;60.59
29359;BME280;16347;53.232;6.556;2023-08-07T01:15:08;100895.53;;;19.62;60.00
29359;BME280;16347;53.232;6.556;2023-08-07T01:17:40;100897.44;;;19.61;59.95
29359;BME280;16347;53.232;6.556;2023-08-07T01:20:10;100894.72;;;19.28;60.93
29359;BME280;16347;53.232;6.556;2023-08-07T01:22:40;100887.28;;;19.29;61.44
29359;BME280;16347;53.232;6.556;2023-08-07T01:25:08;100893.00;;;19.27;61.70
29359;BME280;16347;53.232;6.556;2023-08-07T01:27:42;100887.09;;;19.24;61.59
29359;BME280;16347;53.232;6.556;2023-08-07T01:30:17;100879.88;;;19.23;62.01
29359;BME280;16347;53.232;6.556;2023-08-07T01:32:56;100885.84;;;19.20;61.72
29359;BME280;16347;53.232;6.556;2023-08-07T01:35:29;100876.91;;;19.11;62.11
29359;BME280;16347;53.232;6.556;2023-08-07T01:37:59;100883.72;;;18.95;62.49
29359;BME280;16347;53.232;6.556;2023-08-07T01:40:29;100889.00;;;18.97;62.63
29359;BME280;16347;53.232;6.556;2023-08-07T01:42:58;100872.69;;;19.02;62.51
29359;BME280;16347;53.232;6.556;2023-08-07T01:45:28;100879.50;;;18.93;62.37
29359;BME280;16347;53.232;6.556;2023-08-07T01:47:56;100877.78;;;18.92;62.08
29359;BME280;16347;53.232;6.556;2023-08-07T01:50:25;100881.59;;;18.91;62.17
29359;BME280;16347;53.232;6.556;2023-08-07T01:52:53;100880.13;;;18.82;62.66
29359;BME280;16347;53.232;6.556;2023-08-07T01:55:23;100883.31;;;18.85;62.49
29359;BME280;16347;53.232;6.556;2023-08-07T01:57:52;100884.34;;;18.84;62.60
29359;BME280;16347;53.232;6.556;2023-08-07T02:00:20;100878.00;;;18.90;63.40
29359;BME280;16347;53.232;6.556;2023-08-07T02:02:49;100879.69;;;18.98;62.72
29359;BME280;16347;53.232;6.556;2023-08-07T02:05:17;100879.06;;;18.89;62.31
29359;BME280;16347;53.232;6.556;2023-08-07T02:07:45;100884.59;;;18.83;63.08
29359;BME280;16347;53.232;6.556;2023-08-07T02:10:13;100887.53;;;18.88;63.41
29359;BME280;16347;53.232;6.556;2023-08-07T02:12:42;100879.28;;;18.81;63.05
29359;BME280;16347;53.232;6.556;2023-08-07T02:15:10;100891.75;;;18.84;62.73
29359;BME280;16347;53.232;6.556;2023-08-07T02:17:38;100894.31;;;18.85;62.96
29359;BME280;16347;53.232;6.556;2023-08-07T02:20:09;100900.88;;;18.91;62.65
29359;BME280;16347;53.232;6.556;2023-08-07T02:22:38;100901.13;;;18.83;63.01
29359;BME280;16347;53.232;6.556;2023-08-07T02:25:06;100898.97;;;18.78;63.27
29359;BME280;16347;53.232;6.556;2023-08-07T02:27:36;100902.16;;;18.62;63.81
29359;BME280;16347;53.232;6.556;2023-08-07T02:30:07;100895.34;;;18.52;63.88
29359;BME280;16347;53.232;6.556;2023-08-07T02:32:35;100894.06;;;18.61;63.77
29359;BME280;16347;53.232;6.556;2023-08-07T02:35:03;100889.66;;;18.60;64.39
29359;BME280;16347;53.232;6.556;2023-08-07T02:37:31;100886.47;;;18.63;64.17
29359;BME280;16347;53.232;6.556;2023-08-07T02:39:59;100894.09;;;18.67;63.88
29359;BME280;16347;53.232;6.556;2023-08-07T02:42:27;100893.88;;;18.62;65.18
29359;BME280;16347;53.232;6.556;2023-08-07T02:44:55;100903.22;;;18.74;64.95
29359;BME280;16347;53.232;6.556;2023-08-07T02:47:24;100902.16;;;18.62;64.61
29359;BME280;16347;53.232;6.556;2023-08-07T02:49:52;100903.84;;;18.63;65.56
29359;BME280;16347;53.232;6.556;2023-08-07T02:52:20;100914.88;;;18.70;66.02
29359;BME280;16347;53.232;6.556;2023-08-07T02:54:48;100900.88;;;18.65;65.48
29359;BME280;16347;53.232;6.556;2023-08-07T02:57:16;100898.56;;;18.75;65.93
29359;BME280;16347;53.232;6.556;2023-08-07T02:59:44;100905.75;;;18.76;65.88
29359;BME280;16347;53.232;6.556;2023-08-07T03:02:12;100902.59;;;18.79;65.72
29359;BME280;16347;53.232;6.556;2023-08-07T03:04:41;100904.28;;;18.67;66.07
29359;BME280;16347;53.232;6.556;2023-08-07T03:07:09;100902.34;;;18.61;66.28
29359;BME280;16347;53.232;6.556;2023-08-07T03:09:37;100898.72;;;18.60;67.17
29359;BME280;16347;53.232;6.556;2023-08-07T03:12:05;100893.25;;;18.67;67.13
29359;BME280;16347;53.232;6.556;2023-08-07T03:14:32;100883.72;;;18.76;67.16
29359;BME280;16347;53.232;6.556;2023-08-07T03:17:00;100886.25;;;18.77;67.11
29359;BME280;16347;53.232;6.556;2023-08-07T03:19:28;100884.78;;;18.81;67.40
29359;BME280;16347;53.232;6.556;2023-08-07T03:21:58;100884.16;;;18.79;67.75
29359;BME280;16347;53.232;6.556;2023-08-07T03:24:26;100887.75;;;18.86;67.46
29359;BME280;16347;53.232;6.556;2023-08-07T03:26:54;100884.34;;;18.91;67.53
29359;BME280;16347;53.232;6.556;2023-08-07T03:29:23;100875.25;;;19.04;66.97
29359;BME280;16347;53.232;6.556;2023-08-07T03:31:51;100879.25;;;19.08;67.04
29359;BME280;16347;53.232;6.556;2023-08-07T03:34:19;100873.13;;;19.12;66.56
29359;BME280;16347;53.232;6.556;2023-08-07T03:36:47;100886.03;;;19.12;66.57
29359;BME280;16347;53.232;6.556;2023-08-07T03:39:17;100891.53;;;19.18;66.29
29359;BME280;16347;53.232;6.556;2023-08-07T03:41:45;100885.84;;;19.13;66.28
29359;BME280;16347;53.232;6.556;2023-08-07T03:44:12;100891.13;;;19.21;66.59
29359;BME280;16347;53.232;6.556;2023-08-07T03:46:40;100902.78;;;19.23;65.96
29359;BME280;16347;53.232;6.556;2023-08-07T03:49:08;100901.94;;;19.16;65.87
29359;BME280;16347;53.232;6.556;2023-08-07T03:51:36;100906.63;;;19.09;66.36
29359;BME280;16347;53.232;6.556;2023-08-07T03:54:04;100900.69;;;19.12;66.05
29359;BME280;16347;53.232;6.556;2023-08-07T03:56:34;100917.84;;;19.14;66.20
29359;BME280;16347;53.232;6.556;2023-08-07T03:59:03;100915.94;;;19.08;66.42
29359;BME280;16347;53.232;6.556;2023-08-07T04:01:32;100904.91;;;19.15;66.65
29359;BME280;16347;53.232;6.556;2023-08-07T04:04:00;100904.47;;;19.18;66.48
29359;BME280;16347;53.232;6.556;2023-08-07T04:06:29;100900.47;;;19.20;66.22
29359;BME280;16347;53.232;6.556;2023-08-07T04:08:57;100903.84;;;19.22;66.04
29359;BME280;16347;53.232;6.556;2023-08-07T04:11:25;100905.53;;;19.30;66.29
29359;BME280;16347;53.232;6.556;2023-08-07T04:13:55;100911.69;;;19.32;66.49
29359;BME280;16347;53.232;6.556;2023-08-07T04:16:23;100899.38;;;19.34;66.27
29359;BME280;16347;53.232;6.556;2023-08-07T04:18:52;100904.88;;;19.34;66.07
29359;BME280;16347;53.232;6.556;2023-08-07T04:21:20;100895.13;;;19.38;66.16
29359;BME280;16347;53.232;6.556;2023-08-07T04:23:48;100903.84;;;19.29;65.51
29359;BME280;16347;53.232;6.556;2023-08-07T04:26:16;100908.06;;;19.25;66.01
29359;BME280;16347;53.232;6.556;2023-08-07T04:28:44;100910.63;;;19.26;65.83
29359;BME280;16347;53.232;6.556;2023-08-07T04:31:13;100905.97;;;19.27;65.82
29359;BME280;16347;53.232;6.556;2023-08-07T04:33:41;100905.75;;;19.22;64.96
29359;BME280;16347;53.232;6.556;2023-08-07T04:36:10;100903.84;;;19.16;64.61
29359;BME280;16347;53.232;6.556;2023-08-07T04:38:37;100922.53;;;19.20;64.37
29359;BME280;16347;53.232;6.556;2023-08-07T04:41:05;100926.94;;;19.21;63.42
29359;BME280;16347;53.232;6.556;2023-08-07T04:43:33;100926.34;;;19.19;63.55
29359;BME280;16347;53.232;6.556;2023-08-07T04:46:01;100935.66;;;19.12;63.57
29359;BME280;16347;53.232;6.556;2023-08-07T04:48:30;100937.34;;;19.13;63.95
29359;BME280;16347;53.232;6.556;2023-08-07T04:50:59;100932.47;;;19.15;63.48
29359;BME280;16347;53.232;6.556;2023-08-07T04:53:27;100939.25;;;19.12;63.71
29359;BME280;16347;53.232;6.556;2023-08-07T04:55:55;100937.97;;;19.15;64.25
29359;BME280;16347;53.232;6.556;2023-08-07T04:58:23;100947.34;;;19.14;64.79
29359;BME280;16347;53.232;6.556;2023-08-07T05:00:55;100939.06;;;19.14;64.83
29359;BME280;16347;53.232;6.556;2023-08-07T05:03:23;100935.03;;;19.03;64.92
29359;BME280;16347;53.232;6.556;2023-08-07T05:05:58;100948.16;;;19.08;65.57
29359;BME280;16347;53.232;6.556;2023-08-07T05:08:26;100945.41;;;19.08;65.09
29359;BME280;16347;53.232;6.556;2023-08-07T05:10:54;100953.47;;;19.09;64.99
29359;BME280;16347;53.232;6.556;2023-08-07T05:13:21;100950.09;;;19.14;64.40
29359;BME280;16347;53.232;6.556;2023-08-07T05:15:49;100958.31;;;19.07;64.50
29359;BME280;16347;53.232;6.556;2023-08-07T05:18:17;100950.91;;;19.01;64.03
29359;BME280;16347;53.232;6.556;2023-08-07T05:20:46;100961.09;;;19.07;63.81
29359;BME280;16347;53.232;6.556;2023-08-07T05:23:15;100968.09;;;19.03;63.88
29359;BME280;16347;53.232;6.556;2023-08-07T05:25:44;100975.09;;;19.06;63.48
29359;BME280;16347;53.232;6.556;2023-08-07T05:28:15;100970.84;;;19.03;63.07
29359;BME280;16347;53.232;6.556;2023-08-07T05:30:43;100971.03;;;18.82;63.16
29359;BME280;16347;53.232;6.556;2023-08-07T05:33:11;100968.91;;;18.84;63.69
29359;BME280;16347;53.232;6.556;2023-08-07T05:35:41;100968.72;;;18.92;62.53
29359;BME280;16347;53.232;6.556;2023-08-07T05:38:09;100971.66;;;18.90;61.96
29359;BME280;16347;53.232;6.556;2023-08-07T05:40:38;100984.63;;;18.90;61.28
29359;BME280;16347;53.232;6.556;2023-08-07T05:43:07;100974.84;;;18.87;60.36
29359;BME280;16347;53.232;6.556;2023-08-07T05:45:35;100978.03;;;18.98;60.49
29359;BME280;16347;53.232;6.556;2023-08-07T05:48:04;100980.16;;;18.95;60.21
29359;BME280;16347;53.232;6.556;2023-08-07T05:50:32;100986.09;;;18.86;60.52
29359;BME280;16347;53.232;6.556;2023-08-07T05:53:00;100990.50;;;18.74;61.34
29359;BME280;16347;53.232;6.556;2023-08-07T05:55:28;100993.47;;;18.66;60.55
29359;BME280;16347;53.232;6.556;2023-08-07T05:57:58;101000.03;;;18.65;61.62
29359;BME280;16347;53.232;6.556;2023-08-07T06:00:26;100999.41;;;18.69;61.32
29359;BME280;16347;53.232;6.556;2023-08-07T06:02:55;101000.72;;;18.80;61.06
29359;BME280;16347;53.232;6.556;2023-08-07T06:05:24;101005.13;;;18.74;61.20
29359;BME280;16347;53.232;6.556;2023-08-07T06:07:52;101011.28;;;18.76;61.40
29359;BME280;16347;53.232;6.556;2023-08-07T06:10:20;101009.78;;;18.74;61.78
29359;BME280;16347;53.232;6.556;2023-08-07T06:12:47;101017.41;;;18.72;61.74
29359;BME280;16347;53.232;6.556;2023-08-07T06:15:17;101020.00;;;18.86;62.14
29359;BME280;16347;53.232;6.556;2023-08-07T06:17:45;101021.88;;;18.73;62.02
29359;BME280;16347;53.232;6.556;2023-08-07T06:20:13;101035.88;;;18.78;61.44
29359;BME280;16347;53.232;6.556;2023-08-07T06:22:42;101029.47;;;18.71;60.68
29359;BME280;16347;53.232;6.556;2023-08-07T06:25:10;101040.28;;;18.66;60.00
29359;BME280;16347;53.232;6.556;2023-08-07T06:27:38;101032.66;;;18.68;59.62
29359;BME280;16347;53.232;6.556;2023-08-07T06:30:07;101035.97;;;18.50;60.29
29359;BME280;16347;53.232;6.556;2023-08-07T06:32:37;101041.16;;;18.66;60.55
29359;BME280;16347;53.232;6.556;2023-08-07T06:35:05;101043.22;;;18.58;60.14
29359;BME280;16347;53.232;6.556;2023-08-07T06:37:33;101055.53;;;18.62;60.87
29359;BME280;16347;53.232;6.556;2023-08-07T06:40:01;101060.94;;;18.49;61.72
29359;BME280;16347;53.232;6.556;2023-08-07T06:42:30;101056.91;;;18.44;62.12
29359;BME280;16347;53.232;6.556;2023-08-07T06:44:57;101061.97;;;18.41;62.14
29359;BME280;16347;53.232;6.556;2023-08-07T06:47:25;101068.34;;;18.48;62.15
29359;BME280;16347;53.232;6.556;2023-08-07T06:49:54;101076.25;;;18.58;62.20
29359;BME280;16347;53.232;6.556;2023-08-07T06:52:22;101070.47;;;18.46;61.53
29359;BME280;16347;53.232;6.556;2023-08-07T06:54:50;101072.53;;;18.37;61.67
29359;BME280;16347;53.232;6.556;2023-08-07T06:57:19;101067.88;;;18.38;61.96
29359;BME280;16347;53.232;6.556;2023-08-07T06:59:47;101078.66;;;18.33;62.44
29359;BME280;16347;53.232;6.556;2023-08-07T07:02:15;101073.94;;;18.27;62.13
29359;BME280;16347;53.232;6.556;2023-08-07T07:04:43;101091.97;;;17.95;63.63
29359;BME280;16347;53.232;6.556;2023-08-07T07:07:12;101075.09;;;18.05;63.71
29359;BME280;16347;53.232;6.556;2023-08-07T07:09:40;101073.84;;;18.07;63.30
29359;BME280;16347;53.232;6.556;2023-08-07T07:12:08;101089.44;;;18.00;63.39
29359;BME280;16347;53.232;6.556;2023-08-07T07:14:36;101091.91;;;17.88;63.60
29359;BME280;16347;53.232;6.556;2023-08-07T07:17:04;101096.97;;;17.85;63.78
29359;BME280;16347;53.232;6.556;2023-08-07T07:19:32;101091.56;;;17.98;63.94
29359;BME280;16347;53.232;6.556;2023-08-07T07:22:00;101083.13;;;18.00;64.26
29359;BME280;16347;53.232;6.556;2023-08-07T07:24:29;101092.88;;;18.02;63.93
29359;BME280;16347;53.232;6.556;2023-08-07T07:26:57;101097.25;;;17.97;63.13
29359;BME280;16347;53.232;6.556;2023-08-07T07:29:25;101091.00;;;18.09;62.14
29359;BME280;16347;53.232;6.556;2023-08-07T07:31:53;101089.50;;;18.07;61.07
29359;BME280;16347;53.232;6.556;2023-08-07T07:34:22;101088.66;;;18.06;59.44
29359;BME280;16347;53.232;6.556;2023-08-07T07:36:50;101098.16;;;18.04;59.40
29359;BME280;16347;53.232;6.556;2023-08-07T07:39:20;101089.66;;;17.99;58.49
29359;BME280;16347;53.232;6.556;2023-08-07T07:41:49;101097.59;;;18.15;57.31
29359;BME280;16347;53.232;6.556;2023-08-07T07:44:17;101097.84;;;18.20;57.50
29359;BME280;16347;53.232;6.556;2023-08-07T07:46:45;101102.09;;;18.22;57.07
29359;BME280;16347;53.232;6.556;2023-08-07T07:49:13;101105.75;;;18.29;57.93
29359;BME280;16347;53.232;6.556;2023-08-07T07:51:41;101109.88;;;18.47;56.38
29359;BME280;16347;53.232;6.556;2023-08-07T07:54:11;101120.63;;;18.41;55.46
29359;BME280;16347;53.232;6.556;2023-08-07T07:56:41;101130.31;;;18.31;54.89
29359;BME280;16347;53.232;6.556;2023-08-07T07:59:11;101137.66;;;17.89;54.18
29359;BME280;16347;53.232;6.556;2023-08-07T08:01:40;101138.75;;;17.74;54.58
29359;BME280;16347;53.232;6.556;2023-08-07T08:04:07;101140.94;;;17.78;55.31
29359;BME280;16347;53.232;6.556;2023-08-07T08:06:36;101146.16;;;17.73;56.24
29359;BME280;16347;53.232;6.556;2023-08-07T08:09:05;101139.16;;;17.71;56.11
29359;BME280;16347;53.232;6.556;2023-08-07T08:11:35;101135.28;;;17.86;56.07
29359;BME280;16347;53.232;6.556;2023-08-07T08:14:03;101130.09;;;17.98;55.98
29359;BME280;16347;53.232;6.556;2023-08-07T08:16:32;101136.91;;;18.02;56.10
29359;BME280;16347;53.232;6.556;2023-08-07T08:19:00;101139.25;;;18.05;55.92
29359;BME280;16347;53.232;6.556;2023-08-07T08:21:28;101144.06;;;18.03;56.60
29359;BME280;16347;53.232;6.556;2023-08-07T08:23:58;101145.66;;;18.12;56.01
29359;BME280;16347;53.232;6.556;2023-08-07T08:26:26;101155.63;;;18.20;57.24
29359;BME280;16347;53.232;6.556;2023-08-07T08:28:54;101155.09;;;18.03;58.18
29359;BME280;16347;53.232;6.556;2023-08-07T08:31:22;101164.41;;;18.02;58.46
29359;BME280;16347;53.232;6.556;2023-08-07T08:33:52;101157.50;;;18.13;58.38
29359;BME280;16347;53.232;6.556;2023-08-07T08:36:20;101160.75;;;18.23;58.17
29359;BME280;16347;53.232;6.556;2023-08-07T08:38:48;101166.94;;;18.31;57.02
29359;BME280;16347;53.232;6.556;2023-08-07T08:41:19;101182.78;;;18.23;53.52
29359;BME280;16347;53.232;6.556;2023-08-07T08:43:48;101172.88;;;18.28;53.37
29359;BME280;16347;53.232;6.556;2023-08-07T08:46:19;101167.09;;;18.23;51.44
29359;BME280;16347;53.232;6.556;2023-08-07T08:48:51;101180.16;;;18.15;50.90
29359;BME280;16347;53.232;6.556;2023-08-07T08:51:20;101169.84;;;18.23;51.56
29359;BME280;16347;53.232;6.556;2023-08-07T08:53:50;101186.06;;;18.12;50.41
29359;BME280;16347;53.232;6.556;2023-08-07T08:56:19;101177.31;;;18.29;50.36
29359;BME280;16347;53.232;6.556;2023-08-07T08:58:49;101167.09;;;18.23;51.12
29359;BME280;16347;53.232;6.556;2023-08-07T09:01:18;101186.38;;;18.51;51.39
29359;BME280;16347;53.232;6.556;2023-08-07T09:03:49;101166.50;;;18.56;50.16
29359;BME280;16347;53.232;6.556;2023-08-07T09:06:18;101170.16;;;18.35;49.52
29359;BME280;16347;53.232;6.556;2023-08-07T09:08:48;101179.16;;;18.50;49.09
29359;BME280;16347;53.232;6.556;2023-08-07T09:11:18;101187.25;;;18.52;49.23
29359;BME280;16347;53.232;6.556;2023-08-07T09:13:47;101182.84;;;18.64;49.57
29359;BME280;16347;53.232;6.556;2023-08-07T09:16:17;101183.13;;;18.75;48.57
29359;BME280;16347;53.232;6.556;2023-08-07T09:18:45;101199.63;;;18.69;48.85
29359;BME280;16347;53.232;6.556;2023-08-07T09:21:13;101194.72;;;18.64;48.24
29359;BME280;16347;53.232;6.556;2023-08-07T09:23:43;101206.31;;;18.53;48.10
29359;BME280;16347;53.232;6.556;2023-08-07T09:26:12;101199.75;;;18.54;48.25
29359;BME280;16347;53.232;6.556;2023-08-07T09:28:40;101200.19;;;18.58;49.42
29359;BME280;16347;53.232;6.556;2023-08-07T09:31:08;101203.44;;;18.68;48.23
29359;BME280;16347;53.232;6.556;2023-08-07T09:33:38;101191.88;;;18.51;47.76
29359;BME280;16347;53.232;6.556;2023-08-07T09:36:06;101190.47;;;18.62;47.03
29359;BME280;16347;53.232;6.556;2023-08-07T09:38:34;101234.72;;;18.60;47.68
29359;BME280;16347;53.232;6.556;2023-08-07T09:41:03;101205.84;;;18.50;46.13
29359;BME280;16347;53.232;6.556;2023-08-07T09:43:35;101221.06;;;18.45;46.96
29359;BME280;16347;53.232;6.556;2023-08-07T09:46:04;101216.09;;;18.56;46.13
29359;BME280;16347;53.232;6.556;2023-08-07T09:48:39;101202.56;;;18.67;45.02
29359;BME280;16347;53.232;6.556;2023-08-07T09:51:07;101204.31;;;18.75;47.75
29359;BME280;16347;53.232;6.556;2023-08-07T09:53:35;101202.22;;;18.77;46.86
29359;BME280;16347;53.232;6.556;2023-08-07T09:56:03;101219.63;;;18.84;46.53
29359;BME280;16347;53.232;6.556;2023-08-07T09:58:31;101222.94;;;18.66;46.86
29359;BME280;16347;53.232;6.556;2023-08-07T10:01:02;101248.16;;;18.42;47.82
29359;BME280;16347;53.232;6.556;2023-08-07T10:03:31;101249.13;;;18.34;48.70
29359;BME280;16347;53.232;6.556;2023-08-07T10:06:00;101230.16;;;18.18;48.60
29359;BME280;16347;53.232;6.556;2023-08-07T10:08:29;101230.97;;;18.12;49.35
29359;BME280;16347;53.232;6.556;2023-08-07T10:10:58;101230.28;;;18.10;49.85
29359;BME280;16347;53.232;6.556;2023-08-07T10:13:27;101236.63;;;18.32;49.94
29359;BME280;16347;53.232;6.556;2023-08-07T10:16:07;101238.53;;;18.53;49.16
29359;BME280;16347;53.232;6.556;2023-08-07T10:18:36;101219.31;;;18.66;50.04
29359;BME280;16347;53.232;6.556;2023-08-07T10:21:05;101224.88;;;18.72;48.66
29359;BME280;16347;53.232;6.556;2023-08-07T10:23:35;101224.16;;;18.64;49.33
29359;BME280;16347;53.232;6.556;2023-08-07T10:26:04;101221.81;;;18.61;49.19
29359;BME280;16347;53.232;6.556;2023-08-07T10:28:35;101236.66;;;18.60;49.88
29359;BME280;16347;53.232;6.556;2023-08-07T10:31:07;101233.50;;;18.63;50.24
29359;BME280;16347;53.232;6.556;2023-08-07T10:33:37;101231.66;;;18.49;49.75
29359;BME280;16347;53.232;6.556;2023-08-07T10:36:10;101243.34;;;18.51;49.95
29359;BME280;16347;53.232;6.556;2023-08-07T10:38:39;101255.41;;;18.50;49.90
29359;BME280;16347;53.232;6.556;2023-08-07T10:41:07;101234.31;;;18.57;47.43
29359;BME280;16347;53.232;6.556;2023-08-07T10:43:39;101250.28;;;18.19;48.65
29359;BME280;16347;53.232;6.556;2023-08-07T10:46:11;101242.19;;;18.38;47.02
29359;BME280;16347;53.232;6.556;2023-08-07T10:48:41;101264.66;;;18.42;46.88
29359;BME280;16347;53.232;6.556;2023-08-07T10:51:13;101257.47;;;18.20;45.60
29359;BME280;16347;53.232;6.556;2023-08-07T10:53:42;101245.06;;;18.30;45.67
29359;BME280;16347;53.232;6.556;2023-08-07T10:56:15;101246.81;;;18.59;45.56
29359;BME280;16347;53.232;6.556;2023-08-07T10:58:49;101246.69;;;18.74;45.34
29359;BME280;16347;53.232;6.556;2023-08-07T11:01:21;101251.78;;;19.11;44.82
29359;BME280;16347;53.232;6.556;2023-08-07T11:03:51;101268.53;;;19.10;45.33
29359;BME280;16347;53.232;6.556;2023-08-07T11:06:22;101248.63;;;19.14;45.64
29359;BME280;16347;53.232;6.556;2023-08-07T11:08:50;101239.06;;;19.04;45.32
29359;BME280;16347;53.232;6.556;2023-08-07T11:11:19;101243.91;;;19.02;45.79
29359;BME280;16347;53.232;6.556;2023-08-07T11:13:46;101258.56;;;19.09;46.84
29359;BME280;16347;53.232;6.556;2023-08-07T11:16:14;101248.09;;;18.98;47.39
29359;BME280;16347;53.232;6.556;2023-08-07T11:18:44;101256.31;;;18.84;48.96
29359;BME280;16347;53.232;6.556;2023-08-07T11:21:12;101265.97;;;18.74;48.38
29359;BME280;16347;53.232;6.556;2023-08-07T11:23:41;101283.47;;;18.60;51.77
29359;BME280;16347;53.232;6.556;2023-08-07T11:26:10;101278.22;;;18.43;54.43
29359;BME280;16347;53.232;6.556;2023-08-07T11:28:38;101287.56;;;18.21;54.46
29359;BME280;16347;53.232;6.556;2023-08-07T11:31:06;101275.69;;;18.21;55.28
29359;BME280;16347;53.232;6.556;2023-08-07T11:33:36;101274.25;;;18.25;55.32
29359;BME280;16347;53.232;6.556;2023-08-07T11:36:10;101281.41;;;18.19;55.30
29359;BME280;16347;53.232;6.556;2023-08-07T11:38:39;101287.50;;;18.15;55.64
29359;BME280;16347;53.232;6.556;2023-08-07T11:41:10;101289.66;;;17.98;54.75
29359;BME280;16347;53.232;6.556;2023-08-07T11:43:40;101289.22;;;17.94;55.28
29359;BME280;16347;53.232;6.556;2023-08-07T11:46:09;101283.25;;;17.91;55.05
29359;BME280;16347;53.232;6.556;2023-08-07T11:48:39;101294.66;;;17.88;55.07
29359;BME280;16347;53.232;6.556;2023-08-07T11:51:09;101289.94;;;17.82;53.03
29359;BME280;16347;53.232;6.556;2023-08-07T11:53:38;101296.16;;;18.12;52.22
29359;BME280;16347;53.232;6.556;2023-08-07T11:56:08;101299.25;;;18.02;51.16
29359;BME280;16347;53.232;6.556;2023-08-07T11:58:38;101288.16;;;18.17;52.16
29359;BME280;16347;53.232;6.556;2023-08-07T12:01:09;101292.78;;;18.37;52.74
29359;BME280;16347;53.232;6.556;2023-08-07T12:03:38;101284.53;;;18.37;53.36
29359;BME280;16347;53.232;6.556;2023-08-07T12:06:08;101301.09;;;18.44;54.57
29359;BME280;16347;53.232;6.556;2023-08-07T12:08:38;101307.28;;;18.25;56.92
29359;BME280;16347;53.232;6.556;2023-08-07T12:11:07;101306.31;;;18.32;57.72
29359;BME280;16347;53.232;6.556;2023-08-07T12:13:37;101307.16;;;18.33;58.83
29359;BME280;16347;53.232;6.556;2023-08-07T12:16:06;101297.25;;;18.38;58.52
29359;BME280;16347;53.232;6.556;2023-08-07T12:18:36;101306.31;;;18.32;58.93
29359;BME280;16347;53.232;6.556;2023-08-07T12:21:07;101309.59;;;18.21;58.46
29359;BME280;16347;53.232;6.556;2023-08-07T12:23:36;101296.88;;;17.99;58.30
29359;BME280;16347;53.232;6.556;2023-08-07T12:26:07;101288.81;;;17.98;58.56
29359;BME280;16347;53.232;6.556;2023-08-07T12:28:35;101298.84;;;18.05;58.63
29359;BME280;16347;53.232;6.556;2023-08-07T12:31:03;101295.06;;;18.06;59.38
29359;BME280;16347;53.232;6.556;2023-08-07T12:33:32;101296.75;;;18.28;60.77
29359;BME280;16347;53.232;6.556;2023-08-07T12:36:00;101294.03;;;18.14;61.66
29359;BME280;16347;53.232;6.556;2023-08-07T12:38:29;101289.47;;;18.21;61.51
29359;BME280;16347;53.232;6.556;2023-08-07T12:40:58;101277.13;;;18.59;61.08
29359;BME280;16347;53.232;6.556;2023-08-07T12:43:27;101279.78;;;18.80;60.65
29359;BME280;16347;53.232;6.556;2023-08-07T12:45:56;101285.13;;;18.54;59.66
29359;BME280;16347;53.232;6.556;2023-08-07T12:48:43;101281.47;;;18.75;58.02
29359;BME280;16347;53.232;6.556;2023-08-07T12:51:12;101278.66;;;18.96;54.98
29359;BME280;16347;53.232;6.556;2023-08-07T12:53:40;101262.66;;;19.19;53.99
29359;BME280;16347;53.232;6.556;2023-08-07T12:56:09;101282.41;;;19.29;53.17
29359;BME280;16347;53.232;6.556;2023-08-07T12:58:37;101275.63;;;19.32;51.67